Startpagina
METAR-TAF:

METAR-TAF

Vliegvelden :

K14-fa-1c, Nederland

Productieplatform

breedte: 53-16-10N, lengte: 3-37-40E, hoogte: 28 m

Actueel weer

Dit bericht is 25 minuten geleden gemaakt, om 05:55 UTC
Wind 41 kt uit het westzuidwesten
Temperatuur 9°C
Vochtigheid 81%
Druk 980 hPa
Zicht 10 km of meer
Weinig wolken op 1100 ft
Verspreide wolken op 4900 ft

METAR: EHKV 180555Z AUTO 25041KT 9999 FEW011 SCT049 09/06 Q0980 W///H///

Tijdstip: 07:20 (06:20 UTC)


TAF: ontbreekt

Waarnemingen en weersverwachtingen van meer dan 4000 vliegvelden (METAR en TAF).

De beschikbare stations zijn de gele en rode punten op de kaart.

Ga met uw muis naar het station om de naam te zien.

Klik dan om waarnemingen en weersverwachtingen te zien.

kaart wijzigen: klik op de groene knoppen met een zwart kruis om in te zoomen, op de groene knop met een streepje om uit te zoomen of op de groene pijlen voor aangrenzende kaarten.


METAR-TAF: